Time;durP1;ratioP1;P1;durP2;ratioP2;P2;SDS_P1;SDS_P2;PMS_P1;PMS_P2;Temp;Humidity;BMP_temperature;BMP_pressure;BME280_temperature;BME280_humidity;BME280_pressure;Samples;Min_cycle;Max_cycle;Signal;HPM_P1;HPM_P2
2022/06/14 00:02:51;;;;;;;1.00;0.70;;;12.80;99.90;;;;;;5078664;28;20197;-72
2022/06/14 00:05:17;;;;;;;0.80;0.50;;;12.80;99.90;;;;;;5088817;28;20416;-72
2022/06/14 00:07:42;;;;;;;0.80;0.50;;;12.80;99.90;;;;;;5074677;28;20556;-72
2022/06/14 00:10:08;;;;;;;0.73;0.50;;;12.80;99.90;;;;;;5083866;28;20625;-72
2022/06/14 00:12:33;;;;;;;0.73;0.50;;;12.70;99.90;;;;;;5082364;28;20185;-72
2022/06/14 00:14:59;;;;;;;0.80;0.50;;;12.70;99.90;;;;;;5078032;28;20170;-72
2022/06/14 00:17:25;;;;;;;0.80;0.50;;;12.70;99.90;;;;;;5088213;28;20218;-72
2022/06/14 00:19:50;;;;;;;0.80;0.50;;;12.70;99.90;;;;;;5088714;28;20261;-72
2022/06/14 00:22:16;;;;;;;0.80;0.50;;;12.70;99.90;;;;;;5078509;28;20261;-72
2022/06/14 00:24:41;;;;;;;0.77;0.50;;;12.70;99.90;;;;;;5088774;28;20174;-72
2022/06/14 00:27:07;;;;;;;1.67;0.70;;;12.70;99.90;;;;;;5077843;28;20182;-72
2022/06/14 00:29:32;;;;;;;2.20;0.97;;;12.70;99.90;;;;;;5087719;28;20181;-71
2022/06/14 00:31:58;;;;;;;1.17;0.83;;;12.70;99.90;;;;;;5084565;28;20220;-71
2022/06/14 00:34:24;;;;;;;4.60;1.03;;;12.60;99.90;;;;;;5074764;28;20158;-71
2022/06/14 00:36:55;;;;;;;0.80;0.50;;;12.60;99.90;;;;;;5091878;28;20809;-72
2022/06/14 00:39:21;;;;;;;0.77;0.50;;;12.60;99.90;;;;;;5092068;28;20157;-71
2022/06/14 00:41:53;;;;;;;0.80;0.50;;;12.60;99.90;;;;;;5091991;28;20404;-71
2022/06/14 00:44:23;;;;;;;1.10;0.90;;;12.60;99.90;;;;;;5089793;28;20403;-71
2022/06/14 00:47:06;;;;;;;0.80;0.60;;;12.50;99.90;;;;;;5091116;28;21001;-71
2022/06/14 00:49:44;;;;;;;0.90;0.77;;;12.50;99.90;;;;;;5091966;28;20403;-72
2022/06/14 00:52:31;;;;;;;0.80;0.50;;;12.50;99.90;;;;;;5095434;28;20388;-72
2022/06/14 00:55:04;;;;;;;0.80;0.50;;;12.50;99.90;;;;;;5094368;28;20809;-72
2022/06/14 00:57:38;;;;;;;0.80;0.63;;;12.50;99.90;;;;;;5082476;28;20432;-72
2022/06/14 01:00:15;;;;;;;0.80;0.60;;;12.40;99.90;;;;;;5075724;28;20424;-72
2022/06/14 01:02:46;;;;;;;0.80;0.50;;;12.40;99.90;;;;;;5074516;28;20540;-72
2022/06/14 01:05:26;;;;;;;0.80;0.50;;;12.40;99.90;;;;;;5075388;28;20405;-72
2022/06/14 01:07:57;;;;;;;0.80;0.50;;;12.40;99.90;;;;;;5075464;28;20420;-73
2022/06/14 01:10:32;;;;;;;0.80;0.50;;;12.40;99.90;;;;;;5093289;28;20425;-72
2022/06/14 01:13:01;;;;;;;0.80;0.50;;;12.40;99.90;;;;;;5095662;28;20406;-72
2022/06/14 01:15:33;;;;;;;0.80;0.50;;;12.40;99.90;;;;;;5095322;28;20388;-72
2022/06/14 01:18:12;;;;;;;0.80;0.50;;;12.40;99.90;;;;;;5095560;28;20897;-72
2022/06/14 01:20:38;;;;;;;0.80;0.50;;;12.30;99.90;;;;;;5091290;28;20772;-72
2022/06/14 01:23:06;;;;;;;0.80;0.50;;;12.30;99.90;;;;;;5075002;28;21001;-72
2022/06/14 01:25:38;;;;;;;0.80;0.60;;;12.30;99.90;;;;;;5074724;28;20408;-72
2022/06/14 01:28:05;;;;;;;0.80;0.70;;;12.30;99.90;;;;;;5075050;28;20736;-72
2022/06/14 01:30:38;;;;;;;0.80;0.60;;;12.20;99.90;;;;;;5074993;28;20407;-73
2022/06/14 01:33:08;;;;;;;0.80;0.50;;;12.20;99.90;;;;;;5075335;28;20422;-72
2022/06/14 01:35:37;;;;;;;0.80;0.60;;;12.10;99.90;;;;;;5073251;28;20900;-72
2022/06/14 01:38:07;;;;;;;0.80;0.50;;;12.10;99.90;;;;;;5074906;28;20420;-71
2022/06/14 01:41:10;;;;;;;0.80;0.50;;;12.10;99.90;;;;;;5074849;28;20447;-72
2022/06/14 01:44:00;;;;;;;0.80;0.60;;;12.00;99.90;;;;;;5074671;28;20471;-72
2022/06/14 01:46:39;;;;;;;0.80;0.50;;;12.00;99.90;;;;;;5074395;28;21011;-72
2022/06/14 01:52:22;;;;;;;0.80;0.60;;;11.80;99.90;;;;;;5074747;28;20553;-72
2022/06/14 01:54:55;;;;;;;1.13;0.70;;;11.80;99.90;;;;;;5060155;28;20474;-72
2022/06/14 01:57:32;;;;;;;0.80;0.60;;;11.70;99.90;;;;;;5075223;28;20432;-72
2022/06/14 02:00:03;;;;;;;0.80;0.60;;;11.60;99.90;;;;;;5073356;28;20434;-73
2022/06/14 02:02:33;;;;;;;0.80;0.60;;;11.60;99.90;;;;;;5072929;28;20441;-72
2022/06/14 02:05:03;;;;;;;0.80;0.50;;;11.60;99.90;;;;;;5072933;28;20521;-72
2022/06/14 02:07:34;;;;;;;1.00;0.60;;;11.50;99.90;;;;;;5073223;28;20790;-71
2022/06/14 02:10:15;;;;;;;0.80;0.60;;;11.50;99.90;;;;;;5079168;28;20413;-72
2022/06/14 02:12:44;;;;;;;0.97;0.67;;;11.40;99.90;;;;;;5073211;28;20404;-72
2022/06/14 02:15:10;;;;;;;1.47;1.10;;;11.40;99.90;;;;;;5072760;28;20450;-71
2022/06/14 02:17:43;;;;;;;0.80;0.60;;;11.30;99.90;;;;;;5072978;28;20507;-72
2022/06/14 02:20:20;;;;;;;0.80;0.50;;;11.30;99.90;;;;;;5073400;28;20163;-72
2022/06/14 02:22:55;;;;;;;1.87;1.77;;;11.30;99.90;;;;;;5072925;28;20455;-72
2022/06/14 02:25:26;;;;;;;0.80;0.70;;;11.20;99.90;;;;;;5073884;28;20781;-72
2022/06/14 02:28:01;;;;;;;0.80;0.50;;;11.20;99.90;;;;;;5072836;28;20584;-72
2022/06/14 02:30:34;;;;;;;0.80;0.60;;;11.20;99.90;;;;;;5073062;28;20399;-72
2022/06/14 02:33:07;;;;;;;0.80;0.60;;;11.20;99.90;;;;;;5085094;28;20411;-72
2022/06/14 02:35:43;;;;;;;0.80;0.60;;;11.20;99.90;;;;;;5092751;28;20384;-72
2022/06/14 02:38:16;;;;;;;0.90;0.70;;;11.10;99.90;;;;;;5092978;28;20411;-72
2022/06/14 02:41:10;;;;;;;0.80;0.50;;;11.10;99.90;;;;;;5092932;28;20498;-72
2022/06/14 02:44:04;;;;;;;0.80;0.50;;;11.10;99.90;;;;;;5092206;28;20443;-71
2022/06/14 02:46:42;;;;;;;0.80;0.70;;;11.10;99.90;;;;;;5072311;28;20435;-72
2022/06/14 02:49:30;;;;;;;0.77;0.50;;;11.10;99.90;;;;;;5072693;28;20462;-73
2022/06/14 02:52:07;;;;;;;1.17;0.90;;;11.10;99.90;;;;;;5072806;28;20899;-72
2022/06/14 02:54:59;;;;;;;0.80;0.50;;;11.10;99.90;;;;;;5035165;28;1068984;-72
2022/06/14 02:57:41;;;;;;;0.77;0.50;;;11.10;99.90;;;;;;5089872;28;20656;-72
2022/06/14 03:00:34;;;;;;;0.80;0.60;;;11.10;99.90;;;;;;5093490;28;20498;-72
2022/06/14 03:03:27;;;;;;;0.70;0.50;;;11.10;99.90;;;;;;5093527;28;20592;-73
2022/06/14 03:06:14;;;;;;;1.37;0.83;;;11.00;99.90;;;;;;5091858;28;20443;-73
2022/06/14 03:08:51;;;;;;;0.80;0.50;;;11.00;99.90;;;;;;5092817;28;20419;-73
2022/06/14 03:11:37;;;;;;;0.80;0.50;;;11.00;99.90;;;;;;5093340;28;20403;-72
2022/06/14 03:14:16;;;;;;;1.37;1.10;;;11.00;99.90;;;;;;5091997;28;20914;-73
2022/06/14 03:17:14;;;;;;;0.80;0.50;;;11.00;99.90;;;;;;5093451;28;20944;-72
2022/06/14 03:19:54;;;;;;;0.80;0.50;;;11.00;99.90;;;;;;5093087;28;20400;-72
2022/06/14 03:22:32;;;;;;;0.83;0.60;;;11.00;99.90;;;;;;5071606;28;20455;-72
2022/06/14 03:25:06;;;;;;;0.80;0.50;;;11.00;99.90;;;;;;5072588;28;20400;-72
2022/06/14 03:27:39;;;;;;;0.80;0.50;;;11.00;99.90;;;;;;5073704;28;20436;-72
2022/06/14 03:30:23;;;;;;;0.70;0.50;;;11.00;99.90;;;;;;5072795;28;20392;-72
2022/06/14 03:32:55;;;;;;;0.80;0.50;;;10.90;99.90;;;;;;5072627;28;20495;-73
2022/06/14 03:35:29;;;;;;;1.17;1.07;;;10.90;99.90;;;;;;5072382;28;20431;-73
2022/06/14 03:37:59;;;;;;;0.80;0.70;;;10.90;99.90;;;;;;5088182;28;20492;-73
2022/06/14 03:40:24;;;;;;;0.80;0.50;;;10.90;99.90;;;;;;5092936;28;20391;-73
2022/06/14 03:42:51;;;;;;;0.80;0.50;;;10.90;99.90;;;;;;5093144;28;20458;-73
2022/06/14 03:45:23;;;;;;;1.50;0.87;;;10.90;99.90;;;;;;5092485;28;20184;-74
2022/06/14 03:47:48;;;;;;;1.23;1.13;;;10.90;99.90;;;;;;5092360;28;20481;-72
2022/06/14 03:50:46;;;;;;;0.80;0.60;;;10.90;99.90;;;;;;5092682;28;20399;-73
2022/06/14 03:53:32;;;;;;;1.37;0.90;;;10.80;99.90;;;;;;5091989;28;20200;-73
2022/06/14 03:56:14;;;;;;;0.70;0.50;;;10.80;99.90;;;;;;5092232;28;20534;-72
2022/06/14 03:59:00;;;;;;;1.37;1.27;;;10.80;99.90;;;;;;5072271;28;20423;-72
2022/06/14 04:01:40;;;;;;;0.77;0.50;;;10.80;99.90;;;;;;5071095;28;20412;-72
2022/06/14 04:04:31;;;;;;;0.80;0.60;;;10.80;99.90;;;;;;5072155;28;20502;-72
2022/06/14 04:07:40;;;;;;;0.80;0.50;;;10.80;99.90;;;;;;5081618;28;20447;-72
2022/06/14 04:10:14;;;;;;;0.80;0.63;;;10.80;99.90;;;;;;5092310;28;20872;-72
2022/06/14 04:12:51;;;;;;;0.90;0.70;;;10.80;99.90;;;;;;5092127;28;20415;-72
2022/06/14 04:15:51;;;;;;;0.80;0.50;;;10.80;99.90;;;;;;5092121;28;20449;-72
2022/06/14 04:18:45;;;;;;;0.90;0.60;;;10.80;99.90;;;;;;5070812;28;20482;-72
2022/06/14 04:21:19;;;;;;;0.70;0.50;;;10.80;99.90;;;;;;5071011;28;20424;-71
2022/06/14 04:24:09;;;;;;;0.73;0.50;;;10.80;99.90;;;;;;5071853;28;20459;-72
2022/06/14 04:26:40;;;;;;;0.80;0.50;;;10.80;99.90;;;;;;5071632;28;20438;-72
2022/06/14 04:29:31;;;;;;;0.80;0.70;;;10.80;99.90;;;;;;5071886;28;20409;-71
2022/06/14 04:32:06;;;;;;;0.80;0.60;;;10.80;99.90;;;;;;5072028;28;20951;-72
2022/06/14 04:34:51;;;;;;;0.80;0.60;;;10.90;99.90;;;;;;5071787;28;20775;-72
2022/06/14 04:37:26;;;;;;;0.80;0.50;;;10.90;99.90;;;;;;5071810;28;20432;-73
2022/06/14 04:40:00;;;;;;;0.70;0.50;;;11.00;99.90;;;;;;5070578;28;20518;-72
2022/06/14 04:42:45;;;;;;;1.50;0.80;;;11.00;99.90;;;;;;5088074;28;20454;-72
2022/06/14 04:45:16;;;;;;;0.80;0.50;;;11.10;99.90;;;;;;5091639;28;20765;-72
2022/06/14 04:48:01;;;;;;;0.70;0.50;;;11.10;99.90;;;;;;5090541;28;20432;-72
2022/06/14 04:50:37;;;;;;;0.70;0.50;;;11.20;99.90;;;;;;5090524;28;20441;-72
2022/06/14 04:53:10;;;;;;;0.73;0.50;;;11.30;99.90;;;;;;5080392;28;20419;-72
2022/06/14 04:55:43;;;;;;;0.70;0.50;;;11.40;99.90;;;;;;5090429;28;20952;-71
2022/06/14 04:58:23;;;;;;;0.80;0.50;;;11.40;99.90;;;;;;5074468;28;20529;-72
2022/06/14 05:01:02;;;;;;;0.70;0.50;;;11.50;99.90;;;;;;5071710;28;20432;-72
2022/06/14 05:03:48;;;;;;;0.80;0.50;;;11.60;99.90;;;;;;5071616;28;20458;-72
2022/06/14 05:06:42;;;;;;;0.80;0.70;;;11.70;99.90;;;;;;5073766;28;20470;-72
2022/06/14 05:09:22;;;;;;;0.80;0.60;;;11.80;99.90;;;;;;5091748;28;20766;-72
2022/06/14 05:11:52;;;;;;;0.80;0.50;;;11.90;99.90;;;;;;5091777;28;20403;-72
2022/06/14 05:14:30;;;;;;;0.80;0.60;;;12.00;99.90;;;;;;5091317;28;20403;-72
2022/06/14 05:17:17;;;;;;;0.80;0.60;;;12.10;99.90;;;;;;5081828;28;20447;-72
2022/06/14 05:20:13;;;;;;;0.77;0.60;;;12.20;99.90;;;;;;5071504;28;20966;-72
2022/06/14 05:23:05;;;;;;;0.80;0.50;;;12.30;99.90;;;;;;5071314;28;20958;-72
2022/06/14 05:25:55;;;;;;;0.80;0.60;;;12.40;99.90;;;;;;5071150;28;20401;-72
2022/06/14 05:28:53;;;;;;;0.80;0.70;;;12.50;99.90;;;;;;5071353;28;20503;-72
2022/06/14 05:31:37;;;;;;;1.00;0.80;;;12.70;99.90;;;;;;5059754;28;20428;-72
2022/06/14 05:34:42;;;;;;;1.00;0.73;;;12.80;99.90;;;;;;5071273;28;20797;-72
2022/06/14 05:37:18;;;;;;;0.80;0.60;;;12.90;99.90;;;;;;5078534;28;20454;-72
2022/06/14 05:39:47;;;;;;;0.80;0.50;;;13.00;99.90;;;;;;5094650;28;20909;-72
2022/06/14 05:42:19;;;;;;;0.90;0.60;;;13.10;99.90;;;;;;5095038;28;20407;-72
2022/06/14 05:44:47;;;;;;;0.73;0.50;;;13.30;99.90;;;;;;5094818;28;20399;-72
2022/06/14 05:47:26;;;;;;;1.40;0.70;;;13.40;99.90;;;;;;5084631;28;20447;-72
2022/06/14 05:49:58;;;;;;;0.80;0.50;;;13.50;99.90;;;;;;5073486;28;20801;-72
2022/06/14 05:52:29;;;;;;;3.00;0.70;;;13.60;99.90;;;;;;5074723;28;20405;-72
2022/06/14 05:55:05;;;;;;;1.27;0.87;;;13.70;99.90;;;;;;5074350;28;20916;-73
2022/06/14 05:57:33;;;;;;;1.20;1.10;;;13.90;99.90;;;;;;5082606;28;21018;-72
2022/06/14 06:00:18;;;;;;;0.80;0.70;;;14.10;99.90;;;;;;5094444;28;20422;-72
2022/06/14 06:03:16;;;;;;;0.80;0.50;;;14.30;99.90;;;;;;5093514;28;20462;-72
2022/06/14 06:05:43;;;;;;;1.00;0.80;;;14.50;99.90;;;;;;5090179;28;20411;-73
2022/06/14 06:08:09;;;;;;;0.90;0.80;;;14.70;99.90;;;;;;5075154;28;20413;-73
2022/06/14 06:10:48;;;;;;;1.10;0.80;;;15.00;99.90;;;;;;5074425;28;20917;-72
2022/06/14 06:13:24;;;;;;;1.40;0.90;;;15.30;99.90;;;;;;5074301;28;20170;-72
2022/06/14 06:16:03;;;;;;;5.07;1.13;;;15.60;99.90;;;;;;5073972;28;20493;-72
2022/06/14 06:18:31;;;;;;;2.03;1.17;;;15.90;99.90;;;;;;5074186;28;20787;-72
2022/06/14 06:21:03;;;;;;;1.43;1.00;;;16.20;99.90;;;;;;5074141;28;20409;-73
2022/06/14 06:23:32;;;;;;;1.77;0.80;;;16.60;99.90;;;;;;5074003;28;20452;-73
2022/06/14 06:25:58;;;;;;;0.90;0.80;;;16.90;99.90;;;;;;5073812;28;20421;-72
2022/06/14 06:28:25;;;;;;;0.90;0.80;;;17.50;99.90;;;;;;5092859;28;20490;-73
2022/06/14 06:31:04;;;;;;;0.87;0.73;;;18.00;99.90;;;;;;5094239;28;20407;-72
2022/06/14 06:33:35;;;;;;;4.73;1.03;;;18.60;99.90;;;;;;5094218;28;20423;-73
2022/06/14 06:36:37;;;;;;;0.90;0.80;;;19.20;99.90;;;;;;5093712;28;20420;-73
2022/06/14 06:39:26;;;;;;;1.83;1.33;;;19.90;99.90;;;;;;5089211;28;20404;-73
2022/06/14 06:42:00;;;;;;;0.90;0.80;;;20.70;99.90;;;;;;5062619;28;20410;-73
2022/06/14 06:44:37;;;;;;;2.07;1.03;;;21.30;99.90;;;;;;5073057;28;20452;-73
2022/06/14 06:47:13;;;;;;;1.00;0.90;;;21.90;99.90;;;;;;5073931;28;20486;-73
2022/06/14 06:49:51;;;;;;;1.00;0.77;;;22.50;99.90;;;;;;5072311;28;20400;-73
2022/06/14 06:52:23;;;;;;;1.00;0.90;;;23.10;99.90;;;;;;5073437;28;20396;-73
2022/06/14 06:54:55;;;;;;;1.23;0.80;;;23.70;99.90;;;;;;5071896;28;20433;-73
2022/06/14 06:57:25;;;;;;;2.73;1.23;;;24.20;99.90;;;;;;5084393;28;20442;-72
2022/06/14 06:59:53;;;;;;;1.00;0.90;;;24.80;99.90;;;;;;5094657;28;20395;-72
2022/06/14 07:02:40;;;;;;;1.10;1.00;;;25.30;99.90;;;;;;5094307;28;20430;-73
2022/06/14 07:05:09;;;;;;;1.00;0.90;;;25.80;99.90;;;;;;5093039;28;20762;-73
2022/06/14 07:08:01;;;;;;;2.33;1.37;;;26.30;96.70;;;;;;5079476;28;20800;-72
2022/06/14 07:10:37;;;;;;;1.43;1.00;;;26.90;93.20;;;;;;5071915;28;20412;-73
2022/06/14 07:13:19;;;;;;;1.10;0.70;;;27.50;90.90;;;;;;5073079;28;20400;-73
2022/06/14 07:15:55;;;;;;;1.10;0.90;;;28.20;87.00;;;;;;5072779;28;20465;-72
2022/06/14 07:18:28;;;;;;;0.97;0.87;;;28.80;81.50;;;;;;5092658;28;20415;-72
2022/06/14 07:21:18;;;;;;;1.10;1.00;;;29.50;76.00;;;;;;5093279;28;20406;-73
2022/06/14 07:24:00;;;;;;;0.90;0.80;;;30.20;70.80;;;;;;5091775;28;20458;-73
2022/06/14 07:26:45;;;;;;;3.00;1.10;;;31.10;66.60;;;;;;5089033;28;20481;-73
2022/06/14 07:29:18;;;;;;;5.80;1.10;;;31.90;62.00;;;;;;5072848;28;20420;-73
2022/06/14 07:31:55;;;;;;;0.90;0.77;;;32.90;58.80;;;;;;5072776;28;20515;-73
2022/06/14 07:34:21;;;;;;;1.83;1.63;;;33.90;54.80;;;;;;5071587;28;20395;-71
2022/06/14 07:37:33;;;;;;;1.00;0.90;;;34.80;52.80;;;;;;5072160;28;20427;-71
2022/06/14 07:40:06;;;;;;;1.10;0.90;;;35.80;50.30;;;;;;5072547;28;20432;-73
2022/06/14 07:42:43;;;;;;;1.27;1.17;;;36.80;47.00;;;;;;5072074;28;20440;-73
2022/06/14 07:45:24;;;;;;;1.00;0.90;;;37.70;45.30;;;;;;5072340;28;20473;-72
2022/06/14 07:48:10;;;;;;;1.07;0.97;;;38.60;42.20;;;;;;5072545;28;20416;-72
2022/06/14 07:50:46;;;;;;;1.30;1.20;;;39.40;40.50;;;;;;5072308;28;20408;-74
2022/06/14 07:53:25;;;;;;;1.23;0.90;;;40.30;38.50;;;;;;5072319;28;20922;-73
2022/06/14 07:55:53;;;;;;;1.27;1.17;;;41.10;36.50;;;;;;5071864;28;20455;-72
2022/06/14 07:58:33;;;;;;;1.17;1.07;;;41.50;34.70;;;;;;5073238;28;20404;-73
2022/06/14 08:01:22;;;;;;;0.93;0.83;;;42.10;33.70;;;;;;5092104;28;20410;-73
2022/06/14 08:04:10;;;;;;;1.10;1.00;;;42.80;33.00;;;;;;5090270;28;20426;-74
2022/06/14 08:06:43;;;;;;;1.20;1.10;;;43.70;32.30;;;;;;5092160;28;20472;-73
2022/06/14 08:09:17;;;;;;;1.30;1.20;;;44.40;30.80;;;;;;5091625;28;20507;-73
2022/06/14 08:11:53;;;;;;;1.20;1.10;;;45.10;29.90;;;;;;5092086;28;20904;-73
2022/06/14 08:14:43;;;;;;;1.37;1.23;;;45.80;29.30;;;;;;5091687;28;20418;-73
2022/06/14 08:17:16;;;;;;;1.27;1.17;;;46.50;28.50;;;;;;5091992;28;20880;-73
2022/06/14 08:19:54;;;;;;;1.30;1.20;;;47.20;27.60;;;;;;5075674;28;20425;-73
2022/06/14 08:22:34;;;;;;;1.20;1.10;;;47.90;27.00;;;;;;5071768;28;20383;-74
2022/06/14 08:25:07;;;;;;;1.40;1.30;;;48.60;26.70;;;;;;5071392;28;20499;-72
2022/06/14 08:27:36;;;;;;;1.20;1.10;;;49.30;25.70;;;;;;5071765;28;20394;-72
2022/06/14 08:30:32;;;;;;;1.97;1.43;;;49.90;25.50;;;;;;5091754;28;20404;-72
2022/06/14 08:33:06;;;;;;;1.20;1.10;;;50.60;25.00;;;;;;5057997;28;20404;-72
2022/06/14 08:35:47;;;;;;;1.77;1.63;;;51.30;24.80;;;;;;5091454;28;20386;-72
2022/06/14 08:38:28;;;;;;;1.83;1.30;;;51.80;24.30;;;;;;5085723;28;20403;-73
2022/06/14 08:41:23;;;;;;;1.40;1.30;;;52.40;23.70;;;;;;5071521;28;20422;-73
2022/06/14 08:43:53;;;;;;;1.37;1.27;;;52.90;23.40;;;;;;5071499;28;20900;-72
2022/06/14 08:46:44;;;;;;;1.50;1.40;;;53.40;23.10;;;;;;5071101;28;20427;-73
2022/06/14 08:49:29;;;;;;;1.60;1.50;;;54.10;23.00;;;;;;5084905;28;20537;-73
2022/06/14 08:52:13;;;;;;;1.90;1.80;;;54.70;22.20;;;;;;5091548;28;20396;-73
2022/06/14 08:55:09;;;;;;;1.43;1.33;;;55.20;21.60;;;;;;5091383;28;20427;-73
2022/06/14 08:57:37;;;;;;;1.67;1.53;;;55.30;20.80;;;;;;5091024;28;20511;-74
2022/06/14 09:00:04;;;;;;;1.70;1.60;;;55.70;20.90;;;;;;5070045;28;20500;-73
2022/06/14 09:03:07;;;;;;;1.70;1.60;;;56.20;21.00;;;;;;5071101;28;20522;-73
2022/06/14 09:05:44;;;;;;;2.03;1.93;;;56.60;20.90;;;;;;5071015;28;20402;-73
2022/06/14 09:08:21;;;;;;;1.70;1.60;;;57.00;20.90;;;;;;5078529;28;20382;-73
2022/06/14 09:11:31;;;;;;;1.60;1.50;;;57.50;20.50;;;;;;5091438;28;20398;-73
2022/06/14 09:14:38;;;;;;;1.90;1.80;;;57.90;20.30;;;;;;5084361;28;20464;-73
2022/06/14 09:17:42;;;;;;;1.70;1.60;;;58.40;20.30;;;;;;5084104;28;20468;-74
2022/06/14 09:20:40;;;;;;;2.13;2.03;;;58.90;20.00;;;;;;5033640;28;20549;-73
2022/06/14 09:23:23;;;;;;;2.40;2.20;;;59.30;19.90;;;;;;5074936;28;20521;-74
2022/06/14 09:26:10;;;;;;;2.23;2.13;;;59.80;19.70;;;;;;5074494;28;20486;-73
2022/06/14 09:29:07;;;;;;;2.27;2.17;;;60.20;19.20;;;;;;5087810;28;20411;-73
2022/06/14 09:32:21;;;;;;;2.70;2.60;;;60.70;19.30;;;;;;5094942;28;20402;-73
2022/06/14 09:35:01;;;;;;;2.40;2.30;;;61.00;19.10;;;;;;5094863;28;20438;-73
2022/06/14 09:37:38;;;;;;;2.40;2.30;;;61.30;18.90;;;;;;5091465;28;20420;-73
2022/06/14 09:40:32;;;;;;;2.40;2.30;;;61.30;18.60;;;;;;5074683;28;20395;-73
2022/06/14 09:43:16;;;;;;;2.50;2.40;;;61.30;18.20;;;;;;5074611;28;20392;-74
2022/06/14 09:45:51;;;;;;;2.90;2.80;;;61.30;18.40;;;;;;5074212;28;20760;-73
2022/06/14 09:48:40;;;;;;;3.10;3.00;;;61.50;18.50;;;;;;5074878;28;20407;-73
2022/06/14 09:51:41;;;;;;;3.00;2.90;;;61.70;18.60;;;;;;5074335;28;20537;-73
2022/06/14 09:54:21;;;;;;;2.90;2.80;;;61.70;18.70;;;;;;5074152;28;20461;-73
2022/06/14 09:57:04;;;;;;;2.70;2.60;;;61.80;18.10;;;;;;5074360;28;20427;-73
2022/06/14 09:59:42;;;;;;;2.70;2.60;;;61.80;18.10;;;;;;5074378;28;20503;-73
2022/06/14 10:02:13;;;;;;;3.10;3.00;;;61.90;17.80;;;;;;5073901;28;20936;-73
2022/06/14 10:04:39;;;;;;;2.90;2.70;;;61.80;17.60;;;;;;5073923;28;20483;-73
2022/06/14 10:07:31;;;;;;;2.90;2.80;;;61.80;17.70;;;;;;5074057;28;20504;-73
2022/06/14 10:10:15;;;;;;;2.60;2.50;;;61.80;17.60;;;;;;5083175;28;20644;-73
2022/06/14 10:13:03;;;;;;;2.73;2.63;;;61.80;17.60;;;;;;5094258;28;20504;-73
2022/06/14 10:15:43;;;;;;;3.03;2.90;;;61.80;17.50;;;;;;5093853;28;20482;-73
2022/06/14 10:18:25;;;;;;;3.00;2.80;;;61.90;17.70;;;;;;5086684;28;20407;-73
2022/06/14 10:21:08;;;;;;;3.30;3.20;;;62.00;17.80;;;;;;5073962;28;20392;-73
2022/06/14 10:23:49;;;;;;;3.27;3.17;;;62.00;17.60;;;;;;5073605;28;20550;-73
2022/06/14 10:29:55;;;;;;;3.13;3.03;;;62.30;17.70;;;;;;5091429;28;20460;-73
2022/06/14 10:32:23;;;;;;;2.67;2.57;;;62.30;17.60;;;;;;5093928;28;20482;-74
2022/06/14 10:35:13;;;;;;;3.00;2.90;;;62.30;17.60;;;;;;5093600;28;20901;-73
2022/06/14 10:38:13;;;;;;;3.27;3.17;;;62.40;17.70;;;;;;5091012;28;20486;-73
2022/06/14 10:41:12;;;;;;;3.00;2.90;;;62.40;17.70;;;;;;5088861;28;20427;-73
2022/06/14 10:43:47;;;;;;;3.20;3.10;;;62.50;17.70;;;;;;5093685;28;20391;-72
2022/06/14 10:46:39;;;;;;;3.20;3.07;;;62.50;17.60;;;;;;5093274;28;20941;-73
2022/06/14 10:49:14;;;;;;;3.00;2.90;;;62.50;17.60;;;;;;5079205;28;20462;-73
2022/06/14 10:52:04;;;;;;;3.10;3.00;;;62.50;17.50;;;;;;5080758;28;20450;-73
2022/06/14 10:54:41;;;;;;;3.20;3.10;;;62.40;17.40;;;;;;5093084;28;20852;-73
2022/06/14 10:57:16;;;;;;;3.60;3.50;;;62.50;17.50;;;;;;5093388;28;20491;-73
2022/06/14 10:59:57;;;;;;;3.53;3.43;;;62.50;18.00;;;;;;5093319;28;20405;-73
2022/06/14 11:02:25;;;;;;;3.40;3.30;;;62.70;17.40;;;;;;5079398;28;20782;-73
2022/06/14 11:05:21;;;;;;;3.20;3.10;;;62.70;17.30;;;;;;5072699;28;20400;-73
2022/06/14 11:08:09;;;;;;;3.50;3.40;;;62.50;17.00;;;;;;5067887;28;20465;-73
2022/06/14 11:10:53;;;;;;;3.30;3.20;;;62.60;17.10;;;;;;5063083;28;20423;-72
2022/06/14 11:13:39;;;;;;;4.43;4.33;;;62.50;17.10;;;;;;5072854;28;20459;-73
2022/06/14 11:16:16;;;;;;;3.30;3.20;;;62.50;16.80;;;;;;5071160;28;20462;-72
2022/06/14 11:18:59;;;;;;;3.60;3.40;;;62.40;16.80;;;;;;5072755;28;20411;-72
2022/06/14 11:21:43;;;;;;;3.20;3.10;;;62.30;16.70;;;;;;5076710;28;20429;-73
2022/06/14 11:24:21;;;;;;;3.20;3.10;;;62.00;16.70;;;;;;5091551;28;20415;-73
2022/06/14 11:27:21;;;;;;;3.40;3.30;;;62.00;16.80;;;;;;5092813;28;20475;-73
2022/06/14 11:29:55;;;;;;;3.40;3.20;;;61.80;16.70;;;;;;5092880;28;20398;-73
2022/06/14 11:32:39;;;;;;;2.90;2.80;;;61.90;16.80;;;;;;5079412;28;20420;-73
2022/06/14 11:35:21;;;;;;;3.37;3.27;;;62.00;17.00;;;;;;5071660;28;20902;-72
2022/06/14 11:38:05;;;;;;;3.00;2.90;;;62.00;17.00;;;;;;5072341;28;20408;-73
2022/06/14 11:40:41;;;;;;;2.90;2.80;;;61.80;16.80;;;;;;5072390;28;20758;-73
2022/06/14 11:43:35;;;;;;;3.10;3.00;;;61.90;16.60;;;;;;5090098;28;20795;-73
2022/06/14 11:46:14;;;;;;;2.87;2.77;;;61.60;16.60;;;;;;5092168;28;20415;-74
2022/06/14 11:48:56;;;;;;;3.00;2.90;;;61.80;16.80;;;;;;5092606;28;20919;-73
2022/06/14 11:51:52;;;;;;;2.80;2.70;;;61.80;16.70;;;;;;5091837;28;20472;-72
2022/06/14 11:54:25;;;;;;;2.80;2.70;;;61.70;16.70;;;;;;5090604;28;20470;-73
2022/06/14 11:57:32;;;;;;;2.87;2.77;;;61.80;16.80;;;;;;5092435;28;20979;-72
2022/06/14 12:00:07;;;;;;;3.13;3.03;;;61.80;16.80;;;;;;5036592;28;20954;-73
2022/06/14 12:02:36;;;;;;;3.10;3.00;;;61.60;16.80;;;;;;5076724;28;20488;-72
2022/06/14 12:05:27;;;;;;;3.23;3.03;;;61.40;16.50;;;;;;5072101;28;20404;-73
2022/06/14 12:08:31;;;;;;;3.40;3.30;;;61.30;16.30;;;;;;5071951;28;20781;-74
2022/06/14 12:11:22;;;;;;;3.27;3.07;;;60.70;16.20;;;;;;5073481;28;20388;-72
2022/06/14 12:14:25;;;;;;;3.17;2.67;;;60.40;16.40;;;;;;5091992;28;20482;-73
2022/06/14 12:17:23;;;;;;;2.67;2.57;;;60.10;16.50;;;;;;5092049;28;20920;-72
2022/06/14 12:20:05;;;;;;;2.87;2.77;;;60.10;16.70;;;;;;5091301;28;20446;-72
2022/06/14 12:22:39;;;;;;;2.83;2.73;;;60.00;16.70;;;;;;5073114;28;20434;-72
2022/06/14 12:28:32;;;;;;;2.63;2.53;;;59.80;16.80;;;;;;5071624;28;20421;-72
2022/06/14 12:31:26;;;;;;;2.40;2.30;;;59.60;16.90;;;;;;5072860;28;20415;-72
2022/06/14 12:34:19;;;;;;;2.30;2.20;;;59.40;16.90;;;;;;5060623;28;20467;-73
2022/06/14 12:37:14;;;;;;;2.43;2.33;;;59.30;16.90;;;;;;5042611;28;20432;-73
2022/06/14 12:39:49;;;;;;;2.47;2.37;;;59.00;16.60;;;;;;5016892;28;20910;-73
2022/06/14 12:42:23;;;;;;;2.33;2.13;;;58.70;16.80;;;;;;5085579;28;20419;-73
2022/06/14 12:45:10;;;;;;;2.40;2.30;;;58.60;16.90;;;;;;5091463;28;20824;-73
2022/06/14 12:47:41;;;;;;;2.70;2.60;;;58.40;17.00;;;;;;5095908;28;20423;-72
2022/06/14 12:50:21;;;;;;;2.00;1.90;;;58.20;17.00;;;;;;5095826;28;20399;-72
2022/06/14 12:52:52;;;;;;;2.17;2.07;;;57.90;16.80;;;;;;5076693;28;20450;-72
2022/06/14 12:55:39;;;;;;;1.80;1.70;;;57.70;17.00;;;;;;5075228;28;20922;-72
2022/06/14 12:58:19;;;;;;;1.70;1.60;;;57.40;17.20;;;;;;5075481;28;20910;-72
2022/06/14 13:00:54;;;;;;;1.70;1.60;;;56.90;17.40;;;;;;5077919;28;20430;-72
2022/06/14 13:03:54;;;;;;;1.80;1.70;;;56.30;17.50;;;;;;5095672;28;20415;-72
2022/06/14 13:06:42;;;;;;;1.70;1.60;;;55.20;17.70;;;;;;5095239;28;20419;-72
2022/06/14 13:09:34;;;;;;;1.50;1.40;;;53.90;18.00;;;;;;5095584;28;20396;-72
2022/06/14 13:12:31;;;;;;;1.63;1.53;;;52.40;18.30;;;;;;5080975;28;20424;-71
2022/06/14 13:15:07;;;;;;;1.40;1.30;;;50.70;18.50;;;;;;5074830;28;20427;-72
2022/06/14 13:17:44;;;;;;;1.30;1.20;;;49.20;19.00;;;;;;5075077;28;20881;-71
2022/06/14 13:20:22;;;;;;;1.53;1.20;;;47.80;19.50;;;;;;5076152;28;20392;-71
2022/06/14 13:22:59;;;;;;;4.20;1.30;;;46.40;20.00;;;;;;5095300;28;20395;-72
2022/06/14 13:25:43;;;;;;;1.50;1.20;;;45.00;20.20;;;;;;5095073;28;20382;-72
2022/06/14 13:28:30;;;;;;;1.67;1.57;;;43.60;20.40;;;;;;5095079;28;20483;-71
2022/06/14 13:31:20;;;;;;;1.30;1.20;;;42.20;21.10;;;;;;5087503;28;20499;-72
2022/06/14 13:33:48;;;;;;;2.20;2.00;;;41.10;22.20;;;;;;5074812;28;20805;-71
2022/06/14 13:36:33;;;;;;;1.17;1.07;;;39.90;22.80;;;;;;5074358;28;20387;-71
2022/06/14 13:39:10;;;;;;;1.20;1.10;;;38.90;23.60;;;;;;5074727;28;20375;-71
2022/06/14 13:42:00;;;;;;;1.40;1.30;;;37.90;24.10;;;;;;5087341;28;20393;-71
2022/06/14 13:44:31;;;;;;;0.90;0.80;;;37.00;24.70;;;;;;5094835;28;20909;-71
2022/06/14 13:47:01;;;;;;;1.20;1.03;;;36.10;25.10;;;;;;5093363;28;20485;-72
2022/06/14 13:49:39;;;;;;;1.60;1.07;;;35.40;25.50;;;;;;5093561;28;20997;-71
2022/06/14 13:52:10;;;;;;;3.17;1.30;;;34.80;26.20;;;;;;5094417;28;20469;-72
2022/06/14 13:54:57;;;;;;;1.10;1.00;;;34.20;26.80;;;;;;5094279;28;21129;-71
2022/06/14 13:57:33;;;;;;;1.50;1.30;;;33.70;27.30;;;;;;5093612;28;20453;-71
2022/06/14 14:00:06;;;;;;;0.90;0.80;;;33.20;27.70;;;;;;5094621;28;20385;-71
2022/06/14 14:02:46;;;;;;;0.90;0.80;;;32.70;28.00;;;;;;5074338;28;20425;-71
2022/06/14 14:05:33;;;;;;;0.90;0.80;;;32.30;28.20;;;;;;5072737;28;20427;-71